Time;durP1;ratioP1;P1;durP2;ratioP2;P2;SDS_P1;SDS_P2;PMS_P1;PMS_P2;Temp;Humidity;BMP_temperature;BMP_pressure;BME280_temperature;BME280_humidity;BME280_pressure;Samples;Min_cycle;Max_cycle;Signal;HPM_P1;HPM_P2
2022/03/27 00:00:41;;;;;;;9.60;7.03;;;6.00;99.90;5.30;102029.00;;;;4991432;27;103889;-64
2022/03/27 00:03:07;;;;;;;9.47;7.13;;;5.50;99.90;5.20;102034.00;;;;4990930;28;108741;-64
2022/03/27 00:05:33;;;;;;;11.00;7.13;;;5.40;99.90;5.10;102032.00;;;;4988249;27;92802;-64
2022/03/27 00:07:59;;;;;;;9.57;5.93;;;5.30;99.90;5.00;102031.00;;;;4971127;28;93125;-64
2022/03/27 00:10:25;;;;;;;8.87;5.73;;;5.30;99.90;5.00;102034.00;;;;4972290;28;93199;-64
2022/03/27 00:12:51;;;;;;;9.27;5.67;;;5.20;99.90;4.90;102026.00;;;;4971711;28;108602;-64
2022/03/27 00:15:17;;;;;;;8.63;5.53;;;5.10;99.90;4.90;102031.00;;;;4971779;28;105049;-65
2022/03/27 00:17:43;;;;;;;5.57;3.50;;;5.10;99.90;4.80;102019.00;;;;4981309;28;94140;-65
2022/03/27 00:20:10;;;;;;;8.10;4.30;;;5.40;99.90;4.80;102023.00;;;;4989741;28;101434;-64
2022/03/27 00:22:37;;;;;;;6.30;4.00;;;5.00;99.90;4.80;102027.00;;;;4991164;27;92993;-64
2022/03/27 00:25:05;;;;;;;5.90;4.33;;;5.30;99.90;4.70;102029.00;;;;4992842;27;92592;-64
2022/03/27 00:27:31;;;;;;;3.57;3.07;;;5.00;99.90;4.70;102036.00;;;;4984312;27;108934;-64
2022/03/27 00:29:58;;;;;;;5.23;3.83;;;4.90;99.90;4.70;102028.00;;;;4972439;28;93026;-64
2022/03/27 00:32:24;;;;;;;4.37;3.20;;;4.90;99.90;4.60;102025.00;;;;4973253;28;93379;-64
2022/03/27 00:34:50;;;;;;;7.60;3.10;;;4.80;99.90;4.60;102025.00;;;;4972383;28;92824;-64
2022/03/27 00:37:16;;;;;;;5.03;3.00;;;4.90;99.90;4.60;102034.00;;;;4971935;28;106684;-64
2022/03/27 00:39:42;;;;;;;3.93;2.87;;;4.90;99.90;4.60;102034.00;;;;4969757;28;93858;-64
2022/03/27 00:42:08;;;;;;;4.67;4.00;;;4.90;99.90;4.60;102035.00;;;;4971726;28;102924;-64
2022/03/27 00:44:35;;;;;;;4.43;3.13;;;4.80;99.90;4.50;102036.00;;;;4974995;28;92968;-64
2022/03/27 00:47:01;;;;;;;3.07;2.53;;;4.80;99.90;4.50;102024.00;;;;4975586;28;94230;-64
2022/03/27 00:49:28;;;;;;;4.90;3.47;;;4.70;99.90;4.40;102031.00;;;;4975578;28;93149;-64
2022/03/27 00:51:54;;;;;;;8.00;3.60;;;4.60;99.90;4.40;102032.00;;;;4978008;28;93271;-64
2022/03/27 00:54:21;;;;;;;4.30;3.47;;;4.60;99.90;4.30;102036.00;;;;4994471;28;92946;-64
2022/03/27 00:56:46;;;;;;;7.83;3.67;;;4.50;99.90;4.20;102033.00;;;;4994338;27;113794;-64
2022/03/27 00:59:13;;;;;;;5.37;3.63;;;4.50;99.90;4.20;102032.00;;;;4994453;28;122754;-64
2022/03/27 01:01:40;;;;;;;4.17;2.93;;;4.50;99.90;4.10;102036.00;;;;4994242;27;92816;-64
2022/03/27 01:04:07;;;;;;;4.20;2.97;;;4.40;99.90;4.10;102031.00;;;;4975883;28;93677;-64
2022/03/27 01:06:41;;;;;;;6.00;3.93;;;4.30;99.90;4.00;102032.00;;;;4974285;28;111041;-63
2022/03/27 01:12:21;;;;;;;2.60;2.00;;;4.20;99.90;4.00;102024.00;;;;4976263;28;92995;-64
2022/03/27 01:14:48;;;;;;;4.67;2.73;;;4.20;99.90;3.90;102029.00;;;;4989113;27;93131;-64
2022/03/27 01:17:20;;;;;;;4.23;3.40;;;4.20;99.90;3.90;102036.00;;;;4990687;27;94481;-64
2022/03/27 01:19:50;;;;;;;4.03;3.03;;;4.20;99.90;3.90;102033.00;;;;4992898;27;93327;-64
2022/03/27 01:22:17;;;;;;;4.10;3.10;;;4.20;99.90;3.80;102034.00;;;;4993811;27;92180;-64
2022/03/27 01:24:44;;;;;;;7.53;3.47;;;4.10;99.90;3.80;102028.00;;;;4995492;27;92652;-64
2022/03/27 01:27:11;;;;;;;4.97;2.97;;;4.00;99.90;3.80;102036.00;;;;4990381;27;103607;-65
2022/03/27 01:29:37;;;;;;;5.00;3.53;;;3.90;99.90;3.70;102022.00;;;;4974219;27;93999;-64
2022/03/27 01:32:05;;;;;;;5.17;3.57;;;3.90;99.90;3.70;102025.00;;;;4976078;27;92831;-64
2022/03/27 01:34:31;;;;;;;4.47;3.10;;;3.90;99.90;3.60;102024.00;;;;4975260;28;98143;-64
2022/03/27 01:37:05;;;;;;;6.23;3.90;;;3.80;99.90;3.50;102018.00;;;;4974548;28;102974;-64
2022/03/27 01:39:32;;;;;;;7.33;4.07;;;3.80;99.90;3.50;102018.00;;;;4974859;28;93448;-64
2022/03/27 01:41:57;;;;;;;3.20;2.97;;;3.70;99.90;3.40;102011.00;;;;4975864;28;92735;-65
2022/03/27 01:44:23;;;;;;;5.10;3.23;;;3.70;99.90;3.40;102019.00;;;;4974220;28;105475;-64
2022/03/27 01:46:49;;;;;;;4.80;3.93;;;3.60;99.90;3.40;102032.00;;;;4988386;28;93156;-64
2022/03/27 01:49:16;;;;;;;4.20;3.23;;;3.70;99.90;3.40;102025.00;;;;4994396;27;93451;-65
2022/03/27 01:51:43;;;;;;;4.57;3.63;;;3.70;99.90;3.30;102020.00;;;;4974775;27;92904;-64
2022/03/27 01:54:10;;;;;;;5.10;3.70;;;3.60;99.90;3.30;102027.00;;;;4991959;27;93913;-64
2022/03/27 01:56:39;;;;;;;11.87;4.03;;;4.10;99.90;3.30;102024.00;;;;4993035;28;111358;-65
2022/03/27 01:59:07;;;;;;;4.77;3.53;;;3.50;99.90;3.20;102019.00;;;;4972239;28;95059;-64
2022/03/27 02:01:34;;;;;;;5.20;3.63;;;3.60;99.90;3.20;102015.00;;;;4979926;28;92773;-65
2022/03/27 02:04:00;;;;;;;3.13;2.83;;;3.50;99.90;3.10;102017.00;;;;4974914;28;92954;-65
2022/03/27 02:06:26;;;;;;;6.93;3.40;;;3.40;99.90;3.00;102020.00;;;;4973346;28;114519;-63
2022/03/27 02:08:52;;;;;;;6.63;3.90;;;3.30;99.90;3.00;102015.00;;;;4974833;28;92949;-63
2022/03/27 02:11:19;;;;;;;7.33;3.27;;;3.30;99.90;3.00;102014.00;;;;4973752;28;110713;-63
2022/03/27 02:13:44;;;;;;;7.57;3.27;;;3.20;99.90;2.90;102020.00;;;;4977087;28;92898;-63
2022/03/27 02:16:10;;;;;;;4.70;3.07;;;3.20;99.90;2.90;102020.00;;;;4993859;27;93657;-63
2022/03/27 02:18:36;;;;;;;5.83;4.30;;;3.10;99.90;2.80;102011.00;;;;4993247;27;94093;-63
2022/03/27 02:21:03;;;;;;;3.47;2.70;;;3.60;99.90;2.80;102019.00;;;;4993614;28;109956;-66
2022/03/27 02:23:29;;;;;;;5.70;3.70;;;3.00;99.90;2.80;102019.00;;;;4974101;28;92835;-64
2022/03/27 02:25:56;;;;;;;4.53;3.70;;;3.00;99.90;2.70;102022.00;;;;4993525;28;93660;-64
2022/03/27 02:28:22;;;;;;;5.07;3.97;;;3.00;99.90;2.70;102018.00;;;;4979540;28;99164;-63
2022/03/27 02:30:49;;;;;;;5.20;3.70;;;3.00;99.90;2.70;102012.00;;;;4974208;28;97520;-64
2022/03/27 02:33:16;;;;;;;5.60;4.27;;;3.00;99.90;2.70;102021.00;;;;4986516;28;92605;-64
2022/03/27 02:35:42;;;;;;;8.17;4.03;;;2.90;99.90;2.70;102028.00;;;;4993609;27;93350;-64
2022/03/27 02:38:08;;;;;;;3.60;2.63;;;2.90;99.90;2.70;102017.00;;;;4991079;28;92954;-64
2022/03/27 02:40:44;;;;;;;5.13;3.93;;;2.90;99.90;2.70;102018.00;;;;4992653;27;111498;-64
2022/03/27 02:43:10;;;;;;;3.80;2.90;;;2.90;99.90;2.70;102018.00;;;;4981184;27;93945;-64
2022/03/27 02:45:36;;;;;;;6.20;3.17;;;2.90;99.90;2.60;102018.00;;;;4971788;28;122870;-64
2022/03/27 02:48:02;;;;;;;8.80;3.37;;;2.90;99.90;2.60;102029.00;;;;4973981;28;93208;-64
2022/03/27 02:50:30;;;;;;;5.27;3.83;;;2.80;99.90;2.60;102030.00;;;;4974096;28;92916;-64
2022/03/27 02:52:57;;;;;;;3.43;3.07;;;2.90;99.90;2.50;102033.00;;;;4973754;28;92933;-64
2022/03/27 02:55:24;;;;;;;3.17;2.87;;;2.70;99.90;2.50;102028.00;;;;4973692;28;93928;-64
2022/03/27 02:57:51;;;;;;;5.43;3.30;;;3.00;99.90;2.40;102039.00;;;;4982205;28;93366;-65
2022/03/27 03:00:18;;;;;;;6.60;3.30;;;2.70;99.90;2.40;102035.00;;;;4994029;27;92079;-64
2022/03/27 03:02:44;;;;;;;4.27;3.30;;;2.70;99.90;2.40;102028.00;;;;4993124;27;98154;-65
2022/03/27 03:05:10;;;;;;;3.83;2.50;;;2.70;99.90;2.30;102037.00;;;;4992286;27;111224;-64
2022/03/27 03:07:41;;;;;;;5.13;2.87;;;2.60;99.90;2.30;102035.00;;;;4991316;27;115081;-64
2022/03/27 03:10:08;;;;;;;3.93;3.17;;;2.60;99.90;2.20;102041.00;;;;4993637;28;92647;-64
2022/03/27 03:12:34;;;;;;;2.73;2.43;;;2.50;99.90;2.20;102037.00;;;;4993655;27;92682;-65
2022/03/27 03:14:59;;;;;;;4.47;3.13;;;2.40;99.90;2.10;102043.00;;;;4991894;27;123018;-64
2022/03/27 03:17:25;;;;;;;3.50;2.90;;;2.80;99.90;2.10;102044.00;;;;4990901;28;120891;-65
2022/03/27 03:19:52;;;;;;;6.43;3.23;;;2.40;99.90;2.00;102045.00;;;;4973394;28;92772;-64
2022/03/27 03:22:18;;;;;;;2.87;2.53;;;2.40;99.90;2.00;102039.00;;;;4973644;28;92901;-64
2022/03/27 03:24:44;;;;;;;4.57;3.40;;;3.10;99.90;2.00;102048.00;;;;4980416;28;108042;-65
2022/03/27 03:27:10;;;;;;;3.70;3.30;;;2.30;99.90;2.00;102041.00;;;;4989172;27;107556;-64
2022/03/27 03:29:36;;;;;;;5.50;3.27;;;2.20;99.90;1.90;102044.00;;;;4973506;28;92595;-65
2022/03/27 03:32:02;;;;;;;4.70;4.00;;;2.20;99.90;1.90;102042.00;;;;4990060;28;110069;-66
2022/03/27 03:34:27;;;;;;;6.40;3.47;;;2.40;99.90;1.80;102045.00;;;;4992400;28;109620;-65
2022/03/27 03:36:53;;;;;;;5.00;2.63;;;2.20;99.90;1.80;102048.00;;;;4991587;28;121268;-64
2022/03/27 03:39:19;;;;;;;3.37;2.77;;;2.20;99.90;1.90;102046.00;;;;4984826;27;93431;-64
2022/03/27 03:41:45;;;;;;;8.23;2.40;;;2.20;99.90;1.90;102053.00;;;;4972939;28;92930;-65
2022/03/27 03:44:11;;;;;;;5.00;3.67;;;2.10;99.90;1.90;102055.00;;;;4971312;28;93242;-65
2022/03/27 03:46:36;;;;;;;3.60;3.30;;;2.20;99.90;1.90;102051.00;;;;4973404;28;93060;-64
2022/03/27 03:49:06;;;;;;;4.10;3.23;;;2.20;99.90;1.90;102050.00;;;;4973997;28;92259;-65
2022/03/27 03:51:36;;;;;;;3.97;2.43;;;2.20;99.90;1.80;102052.00;;;;4973004;28;93071;-65
2022/03/27 03:54:03;;;;;;;5.00;3.43;;;2.20;99.90;1.80;102054.00;;;;4992203;28;93417;-65
2022/03/27 03:56:29;;;;;;;6.63;3.47;;;2.10;99.90;1.80;102047.00;;;;4991025;27;108201;-65
2022/03/27 03:58:55;;;;;;;4.50;3.00;;;2.00;99.90;1.70;102052.00;;;;4992212;27;111565;-65
2022/03/27 04:01:21;;;;;;;5.00;3.40;;;2.40;99.90;1.60;102059.00;;;;4991696;27;109773;-64
2022/03/27 04:03:46;;;;;;;4.97;3.10;;;1.90;99.90;1.60;102047.00;;;;4974988;28;122695;-64
2022/03/27 04:06:12;;;;;;;7.43;3.70;;;1.90;99.90;1.60;102059.00;;;;4972107;28;121309;-64
2022/03/27 04:08:38;;;;;;;4.30;3.40;;;1.80;99.90;1.50;102066.00;;;;4987570;28;111173;-65
2022/03/27 04:11:04;;;;;;;7.60;3.40;;;1.80;99.90;1.50;102053.00;;;;4991761;27;107395;-65
2022/03/27 04:13:30;;;;;;;5.80;3.67;;;1.80;99.90;1.50;102062.00;;;;4992886;28;93066;-64
2022/03/27 04:15:55;;;;;;;8.47;4.77;;;1.70;99.90;1.50;102058.00;;;;4991356;28;122124;-65
2022/03/27 04:18:22;;;;;;;8.33;4.57;;;2.10;99.90;1.40;102052.00;;;;4978979;27;110703;-64
2022/03/27 04:20:47;;;;;;;6.37;4.67;;;1.70;99.90;1.40;102053.00;;;;4988172;27;95003;-64
2022/03/27 04:23:14;;;;;;;7.33;4.43;;;1.70;99.90;1.40;102052.00;;;;4994508;28;123455;-65
2022/03/27 04:25:39;;;;;;;9.47;5.47;;;1.70;99.90;1.40;102052.00;;;;4994736;27;93563;-65
2022/03/27 04:28:08;;;;;;;6.30;4.83;;;1.60;99.90;1.40;102047.00;;;;4984309;27;92881;-65
2022/03/27 04:30:35;;;;;;;6.93;4.57;;;1.60;99.90;1.30;102061.00;;;;4976009;28;92940;-65
2022/03/27 04:33:00;;;;;;;8.90;5.60;;;1.70;99.90;1.30;102049.00;;;;4985474;28;100433;-66
2022/03/27 04:35:26;;;;;;;6.03;4.33;;;1.60;99.90;1.30;102059.00;;;;4990135;27;121806;-65
2022/03/27 04:37:51;;;;;;;5.40;4.90;;;1.60;99.90;1.30;102057.00;;;;4976220;28;109391;-65
2022/03/27 04:40:18;;;;;;;6.00;4.50;;;1.60;99.90;1.30;102055.00;;;;4974492;28;108665;-65
2022/03/27 04:42:44;;;;;;;5.43;4.33;;;1.60;99.90;1.40;102052.00;;;;4975215;28;93838;-65
2022/03/27 04:45:11;;;;;;;8.77;4.63;;;1.60;99.90;1.40;102043.00;;;;4973920;28;122654;-65
2022/03/27 04:47:38;;;;;;;8.43;5.20;;;1.70;99.90;1.40;102052.00;;;;4975453;28;92956;-65
2022/03/27 04:50:05;;;;;;;7.50;4.80;;;1.70;99.90;1.40;102057.00;;;;4975197;28;92755;-65
2022/03/27 04:52:31;;;;;;;12.17;5.43;;;1.70;99.90;1.40;102058.00;;;;4981566;28;93181;-65
2022/03/27 04:54:57;;;;;;;10.17;5.53;;;2.30;99.90;1.50;102055.00;;;;4984043;27;93553;-65
2022/03/27 04:57:23;;;;;;;11.10;5.57;;;1.70;99.90;1.50;102051.00;;;;4975739;28;92878;-65
2022/03/27 04:59:49;;;;;;;8.23;4.80;;;1.70;99.90;1.50;102056.00;;;;4975674;28;92790;-65
2022/03/27 05:02:15;;;;;;;8.67;5.20;;;1.70;99.90;1.50;102056.00;;;;4978952;28;121188;-65
2022/03/27 05:04:41;;;;;;;7.83;5.37;;;1.80;99.90;1.50;102062.00;;;;4982967;27;93177;-65
2022/03/27 05:07:07;;;;;;;6.70;5.20;;;1.80;99.90;1.60;102060.00;;;;4975256;28;92800;-65
2022/03/27 05:09:33;;;;;;;8.57;4.80;;;1.70;99.90;1.60;102052.00;;;;4974309;28;98025;-65
2022/03/27 05:11:59;;;;;;;6.40;4.83;;;1.80;99.90;1.60;102057.00;;;;4992249;28;93884;-65
2022/03/27 05:14:25;;;;;;;6.13;4.73;;;1.90;99.90;1.60;102066.00;;;;4993928;28;122693;-65
2022/03/27 05:16:51;;;;;;;7.07;4.47;;;1.90;99.90;1.60;102064.00;;;;4994774;27;92723;-65
2022/03/27 05:19:16;;;;;;;6.30;4.90;;;1.90;99.90;1.60;102050.00;;;;4995116;28;108392;-65
2022/03/27 05:21:42;;;;;;;4.97;3.90;;;1.90;99.90;1.60;102054.00;;;;4993462;27;123490;-64
2022/03/27 05:24:09;;;;;;;5.37;3.43;;;2.00;99.90;1.70;102059.00;;;;4976751;28;123176;-64
2022/03/27 05:26:36;;;;;;;7.47;4.83;;;1.90;99.90;1.60;102058.00;;;;4994959;28;92225;-64
2022/03/27 05:29:08;;;;;;;4.40;2.83;;;1.90;99.90;1.70;102066.00;;;;4995470;27;92670;-65
2022/03/27 05:31:34;;;;;;;5.50;4.93;;;1.90;99.90;1.70;102073.00;;;;4978032;27;93935;-65
2022/03/27 05:34:00;;;;;;;8.00;5.17;;;2.10;99.90;1.80;102074.00;;;;4993902;28;94004;-65
2022/03/27 05:36:26;;;;;;;6.87;5.07;;;2.10;99.90;1.90;102072.00;;;;4992749;27;93181;-66
2022/03/27 05:38:52;;;;;;;10.17;4.33;;;2.80;99.90;2.00;102071.00;;;;4977776;27;92733;-65
2022/03/27 05:41:18;;;;;;;7.23;4.60;;;2.10;99.90;2.00;102073.00;;;;4974856;28;97307;-65
2022/03/27 05:43:44;;;;;;;4.63;3.90;;;2.30;99.90;2.10;102084.00;;;;4974792;28;93729;-66
2022/03/27 05:46:10;;;;;;;6.70;5.80;;;2.10;99.90;2.10;102070.00;;;;4974083;28;109693;-65
2022/03/27 05:48:36;;;;;;;6.47;4.83;;;2.30;99.90;2.10;102071.00;;;;4975653;28;92787;-65
2022/03/27 05:51:02;;;;;;;6.97;5.43;;;2.30;99.90;2.10;102073.00;;;;4955946;28;105046;-65
2022/03/27 05:53:29;;;;;;;8.73;6.40;;;2.40;99.90;2.10;102073.00;;;;4989685;28;93007;-65
2022/03/27 05:55:57;;;;;;;7.97;6.10;;;2.30;99.90;2.10;102064.00;;;;4974280;28;93314;-66
2022/03/27 05:58:23;;;;;;;4.30;3.33;;;2.90;99.90;2.20;102066.00;;;;4974618;28;93663;-65
2022/03/27 06:00:51;;;;;;;8.87;4.97;;;2.40;99.90;2.20;102062.00;;;;4981946;28;93663;-65
2022/03/27 06:03:17;;;;;;;4.07;3.47;;;2.40;99.90;2.20;102066.00;;;;4981122;27;110975;-65
2022/03/27 06:05:43;;;;;;;8.77;5.70;;;2.40;99.90;2.30;102057.00;;;;4973909;28;102029;-66
2022/03/27 06:08:09;;;;;;;19.07;10.10;;;2.50;99.90;2.30;102062.00;;;;4975838;28;92947;-65
2022/03/27 06:10:35;;;;;;;30.30;17.50;;;2.50;99.90;2.40;102044.00;;;;4972132;28;123197;-65
2022/03/27 06:13:03;;;;;;;26.47;14.50;;;2.60;99.90;2.40;102048.00;;;;4972078;28;93396;-65
2022/03/27 06:15:31;;;;;;;12.53;9.37;;;2.60;99.90;2.40;102049.00;;;;4976739;28;103492;-65
2022/03/27 06:17:57;;;;;;;11.47;7.63;;;2.60;99.90;2.60;102053.00;;;;4974511;28;93099;-65
2022/03/27 06:20:29;;;;;;;8.40;5.23;;;2.70;99.90;2.70;102052.00;;;;4972725;28;117160;-64
2022/03/27 06:22:56;;;;;;;5.97;5.40;;;2.80;99.90;2.80;102059.00;;;;4971659;28;113047;-64
2022/03/27 06:25:25;;;;;;;4.73;3.57;;;2.90;99.90;2.90;102065.00;;;;4969482;28;92808;-64
2022/03/27 06:27:51;;;;;;;5.37;4.57;;;3.30;99.90;3.10;102072.00;;;;4976618;28;92978;-65
2022/03/27 06:30:20;;;;;;;12.63;5.97;;;3.20;99.90;3.20;102070.00;;;;4969998;27;115086;-65
2022/03/27 06:32:47;;;;;;;25.07;13.27;;;3.30;99.90;3.40;102071.00;;;;4970201;28;98966;-65
2022/03/27 06:35:15;;;;;;;30.70;22.00;;;3.60;99.90;3.50;102079.00;;;;4970265;28;92751;-65
2022/03/27 06:37:42;;;;;;;13.10;7.97;;;3.60;99.90;3.70;102078.00;;;;4970231;28;92994;-65
2022/03/27 06:40:10;;;;;;;6.83;4.40;;;3.70;99.90;3.80;102077.00;;;;4972534;27;102592;-65
2022/03/27 06:42:36;;;;;;;6.97;5.13;;;3.90;99.90;4.00;102090.00;;;;4974704;27;92856;-65
2022/03/27 06:45:03;;;;;;;12.17;5.07;;;4.10;99.90;4.10;102093.00;;;;4969023;28;111341;-65
2022/03/27 06:47:29;;;;;;;7.70;4.73;;;4.20;99.90;4.20;102087.00;;;;4973590;28;93608;-65
2022/03/27 06:49:57;;;;;;;6.17;4.20;;;4.30;99.90;4.40;102078.00;;;;4969853;28;94210;-65
2022/03/27 06:52:24;;;;;;;7.17;5.43;;;4.80;99.90;4.50;102080.00;;;;4961032;28;93279;-66
2022/03/27 06:54:51;;;;;;;7.17;5.27;;;4.50;99.90;4.70;102087.00;;;;4970600;28;92944;-65
2022/03/27 06:57:16;;;;;;;7.80;5.53;;;4.70;99.90;4.80;102083.00;;;;4969874;28;98587;-65
2022/03/27 07:05:12;;;;;;;6.80;4.90;;;5.30;99.90;5.60;102094.00;;;;4969099;28;92666;-65
2022/03/27 07:07:38;;;;;;;6.23;4.07;;;5.50;99.90;5.80;102106.00;;;;4976493;28;92662;-65
2022/03/27 07:10:05;;;;;;;10.10;4.40;;;5.80;99.90;6.00;102110.00;;;;4970612;28;123385;-65
2022/03/27 07:12:31;;;;;;;9.37;5.57;;;6.00;99.90;6.30;102110.00;;;;4980307;27;94280;-65
2022/03/27 07:14:57;;;;;;;13.73;6.40;;;6.30;99.90;6.60;102107.00;;;;4980943;27;109787;-65
2022/03/27 07:17:23;;;;;;;6.23;4.57;;;6.50;99.90;6.90;102111.00;;;;4970098;28;93008;-65
2022/03/27 07:19:49;;;;;;;5.60;4.20;;;6.90;99.90;7.30;102107.00;;;;4968817;28;121898;-65
2022/03/27 07:22:16;;;;;;;6.93;4.40;;;7.20;99.90;7.50;102109.00;;;;4968848;28;122964;-64
2022/03/27 07:24:42;;;;;;;8.23;5.13;;;7.50;99.90;7.80;102128.00;;;;4969779;28;93097;-64
2022/03/27 07:27:08;;;;;;;7.07;4.17;;;7.80;99.90;8.10;102127.00;;;;4970550;28;93117;-64
2022/03/27 07:29:36;;;;;;;4.83;3.30;;;8.00;99.90;8.50;102118.00;;;;4969467;28;92661;-65
2022/03/27 07:32:02;;;;;;;5.73;4.47;;;8.40;99.90;8.80;102112.00;;;;4969212;28;93026;-64
2022/03/27 07:34:28;;;;;;;5.53;4.00;;;8.70;99.90;9.20;102132.00;;;;4969341;28;93303;-64
2022/03/27 07:36:54;;;;;;;4.47;2.90;;;9.10;99.90;9.50;102122.00;;;;4968964;28;108867;-65
2022/03/27 07:39:21;;;;;;;6.63;4.23;;;9.40;99.90;9.80;102119.00;;;;4974773;28;94003;-64
2022/03/27 07:41:47;;;;;;;5.13;3.37;;;9.60;99.90;10.10;102127.00;;;;4969750;27;93839;-64
2022/03/27 07:44:13;;;;;;;5.33;3.53;;;10.00;99.90;10.40;102130.00;;;;4970999;28;93064;-65
2022/03/27 07:46:39;;;;;;;4.53;3.43;;;10.30;99.90;10.80;102120.00;;;;4979355;28;108682;-64
2022/03/27 07:49:06;;;;;;;4.80;3.40;;;10.70;99.90;11.20;102134.00;;;;4968553;28;94296;-64
2022/03/27 07:51:34;;;;;;;6.70;4.53;;;11.00;99.90;11.40;102143.00;;;;4968351;28;93748;-64
2022/03/27 07:54:00;;;;;;;5.93;3.13;;;11.30;99.90;11.80;102136.00;;;;4976204;28;92152;-64
2022/03/27 07:56:27;;;;;;;4.10;3.43;;;11.90;99.90;12.10;102139.00;;;;4969311;28;92639;-64
2022/03/27 07:58:53;;;;;;;6.80;4.03;;;11.90;99.90;12.40;102138.00;;;;4969213;28;93463;-65
2022/03/27 08:01:19;;;;;;;5.43;3.83;;;12.30;99.90;12.50;102142.00;;;;4968749;28;93937;-65
2022/03/27 08:03:45;;;;;;;4.67;4.10;;;12.40;99.90;12.70;102144.00;;;;4969334;28;93019;-64
2022/03/27 08:06:11;;;;;;;6.63;3.80;;;12.60;99.90;13.00;102146.00;;;;4967918;28;108776;-65
2022/03/27 08:08:36;;;;;;;6.13;3.00;;;12.80;99.90;13.20;102153.00;;;;4970352;28;122252;-65
2022/03/27 08:11:02;;;;;;;4.50;3.30;;;13.00;99.90;13.40;102147.00;;;;4967587;28;122563;-65
2022/03/27 08:13:29;;;;;;;4.73;3.67;;;13.30;99.40;13.70;102145.00;;;;4969050;28;92923;-65
2022/03/27 08:15:55;;;;;;;5.80;3.47;;;13.60;99.00;14.10;102140.00;;;;4967865;28;110050;-65
2022/03/27 08:18:20;;;;;;;4.13;3.03;;;13.90;98.60;14.50;102149.00;;;;4971509;28;121240;-65
2022/03/27 08:20:46;;;;;;;3.90;3.43;;;14.20;97.60;14.80;102150.00;;;;4967544;28;120102;-65
2022/03/27 08:23:12;;;;;;;6.10;3.57;;;14.60;95.40;15.00;102147.00;;;;4969257;27;92943;-65
2022/03/27 08:28:23;;;;;;;5.30;3.17;;;15.20;93.00;15.70;102142.00;;;;4967591;28;93224;-65
2022/03/27 08:30:50;;;;;;;7.93;3.40;;;15.40;92.50;16.00;102148.00;;;;4968074;28;120444;-64
2022/03/27 08:33:17;;;;;;;5.80;3.97;;;15.70;91.80;16.30;102143.00;;;;4969000;28;92873;-64
2022/03/27 08:35:44;;;;;;;5.00;3.72;;;16.10;90.80;16.70;102149.00;;;;4971012;28;93112;-64
2022/03/27 08:38:15;;;;;;;6.53;3.30;;;16.40;90.10;17.00;102144.00;;;;4977640;27;121216;-63
2022/03/27 08:40:43;;;;;;;4.32;3.63;;;16.80;88.20;17.40;102146.00;;;;4968523;28;92984;-63
2022/03/27 08:43:16;;;;;;;7.20;4.55;;;17.10;86.00;17.70;102141.00;;;;4969389;28;92779;-63
2022/03/27 08:45:44;;;;;;;5.47;4.20;;;17.50;82.60;18.00;102151.00;;;;4970107;28;95861;-63
2022/03/27 08:48:11;;;;;;;5.95;4.43;;;17.80;79.50;18.20;102143.00;;;;4979057;27;93589;-64
2022/03/27 08:51:02;;;;;;;5.88;3.90;;;18.00;75.20;18.20;102152.00;;;;4967811;28;93693;-64
2022/03/27 08:53:48;;;;;;;13.00;3.88;;;18.10;73.50;18.20;102147.00;;;;4966544;28;92844;-64
2022/03/27 08:56:15;;;;;;;4.07;3.53;;;18.10;67.80;18.10;102151.00;;;;4967242;28;92829;-65
2022/03/27 08:58:42;;;;;;;6.38;3.47;;;18.10;65.50;18.00;102155.00;;;;4965275;28;121673;-65
2022/03/27 09:01:09;;;;;;;5.32;3.42;;;18.60;64.20;17.90;102150.00;;;;4968554;28;93205;-65
2022/03/27 09:03:35;;;;;;;4.95;3.20;;;17.90;62.90;17.80;102142.00;;;;4972758;28;92854;-64
2022/03/27 09:06:01;;;;;;;4.00;3.05;;;17.80;63.80;18.00;102154.00;;;;4972029;28;93058;-64
2022/03/27 09:08:32;;;;;;;6.18;3.72;;;17.90;64.00;18.20;102135.00;;;;4972026;28;93619;-64
2022/03/27 09:10:58;;;;;;;5.57;3.28;;;18.00;61.30;18.30;102130.00;;;;4973394;28;93075;-64
2022/03/27 09:13:25;;;;;;;6.38;4.15;;;18.10;59.30;18.60;102138.00;;;;4979333;28;92858;-64
2022/03/27 09:16:07;;;;;;;6.68;3.78;;;18.30;59.40;18.90;102129.00;;;;4975677;28;94052;-64
2022/03/27 09:18:52;;;;;;;6.90;3.85;;;18.60;59.00;19.10;102129.00;;;;4971423;28;93743;-64
2022/03/27 09:21:20;;;;;;;5.05;3.85;;;18.80;58.50;19.30;102129.00;;;;4971306;28;93564;-64
2022/03/27 09:24:02;;;;;;;5.20;4.07;;;19.00;58.30;19.60;102128.00;;;;4973208;28;93698;-63
2022/03/27 09:26:31;;;;;;;5.32;3.72;;;19.40;57.80;20.00;102130.00;;;;4970968;28;92795;-65
2022/03/27 09:29:08;;;;;;;6.10;4.63;;;19.50;57.40;20.50;102139.00;;;;4971576;28;94229;-62
2022/03/27 09:31:34;;;;;;;6.57;3.75;;;19.90;55.20;20.80;102132.00;;;;4973723;28;93633;-65
2022/03/27 09:34:02;;;;;;;9.95;4.88;;;20.30;54.20;21.10;102128.00;;;;4971497;28;110278;-63
2022/03/27 09:36:34;;;;;;;5.60;4.13;;;20.60;53.20;21.40;102130.00;;;;4971706;28;92938;-63
2022/03/27 09:39:18;;;;;;;6.63;3.97;;;20.90;52.10;21.40;102129.00;;;;4973870;28;92920;-63
2022/03/27 09:41:46;;;;;;;5.60;3.38;;;21.10;48.90;21.40;102128.00;;;;4968059;28;93742;-64
2022/03/27 09:44:19;;;;;;;7.40;4.25;;;21.10;48.50;21.60;102119.00;;;;4972314;28;93207;-64
2022/03/27 09:47:11;;;;;;;7.95;4.15;;;21.30;48.30;21.70;102115.00;;;;4968727;28;92752;-64
2022/03/27 09:49:40;;;;;;;5.78;2.80;;;21.20;48.00;21.80;102126.00;;;;4970480;28;122430;-62
2022/03/27 09:52:21;;;;;;;5.90;3.55;;;21.30;47.90;22.00;102121.00;;;;4971851;28;93240;-62
2022/03/27 09:55:07;;;;;;;5.45;3.58;;;21.50;46.30;22.20;102130.00;;;;4978508;28;92849;-64
2022/03/27 09:57:40;;;;;;;7.78;3.58;;;21.60;45.10;22.10;102116.00;;;;4974689;28;92991;-63
2022/03/27 10:00:18;;;;;;;5.70;2.95;;;21.50;44.90;22.20;102128.00;;;;4970527;28;108150;-64
2022/03/27 10:02:49;;;;;;;4.85;2.55;;;21.50;45.40;22.20;102115.00;;;;4972265;28;92643;-65
2022/03/27 10:05:17;;;;;;;3.92;2.75;;;21.60;41.50;21.70;102112.00;;;;4969232;28;93012;-63
2022/03/27 10:07:52;;;;;;;4.20;2.80;;;21.30;41.00;21.50;102113.00;;;;4971077;28;93840;-64
2022/03/27 10:10:21;;;;;;;4.75;2.65;;;21.00;42.30;21.70;102114.00;;;;4973022;28;93324;-66
2022/03/27 10:12:50;;;;;;;3.53;2.65;;;21.10;43.60;22.10;102118.00;;;;4970702;28;93818;-65
2022/03/27 10:15:28;;;;;;;2.00;1.90;;;21.30;43.50;22.30;102111.00;;;;4976271;28;101927;-66
2022/03/27 10:18:10;;;;;;;2.40;2.08;;;21.60;39.70;22.30;102106.00;;;;4975893;27;92938;-66
2022/03/27 10:20:37;;;;;;;2.00;1.75;;;21.60;40.00;22.40;102098.00;;;;4967886;28;95863;-66
2022/03/27 10:23:04;;;;;;;6.13;2.28;;;21.70;40.30;22.80;102105.00;;;;4953870;28;96299;-65
2022/03/27 10:26:08;;;;;;;3.92;2.38;;;22.10;40.60;23.20;102107.00;;;;4970526;28;92187;-66
2022/03/27 10:28:34;;;;;;;2.67;2.08;;;22.30;39.40;23.40;102101.00;;;;4967154;28;108958;-65
2022/03/27 10:31:00;;;;;;;3.65;2.70;;;22.70;39.10;23.70;102108.00;;;;4969617;28;110702;-66
2022/03/27 10:33:28;;;;;;;4.75;3.05;;;23.00;38.50;23.90;102107.00;;;;4966655;28;113378;-65
2022/03/27 10:36:10;;;;;;;4.50;2.35;;;23.30;37.30;23.90;102105.00;;;;4970255;28;93178;-65
2022/03/27 10:39:28;;;;;;;2.17;1.88;;;23.30;38.00;24.00;102095.00;;;;4975401;28;92920;-66
2022/03/27 10:42:21;;;;;;;3.55;3.08;;;23.40;37.70;23.60;102093.00;;;;4967754;28;93567;-65
2022/03/27 10:45:25;;;;;;;6.45;3.40;;;23.30;35.50;23.10;102095.00;;;;4969772;28;93880;-64
2022/03/27 10:48:13;;;;;;;2.35;2.10;;;22.80;35.00;23.10;102100.00;;;;4964476;28;92993;-65
2022/03/27 10:50:54;;;;;;;3.92;1.95;;;22.60;36.10;23.30;102097.00;;;;4974054;27;92781;-65
2022/03/27 10:53:25;;;;;;;3.45;2.72;;;22.70;36.80;23.60;102096.00;;;;4978445;28;92798;-65
2022/03/27 10:55:54;;;;;;;5.40;3.30;;;22.90;36.20;23.70;102084.00;;;;4969249;28;93069;-66
2022/03/27 10:58:40;;;;;;;3.75;2.45;;;23.00;35.90;23.70;102083.00;;;;4971657;28;92826;-66
2022/03/27 11:01:28;;;;;;;5.85;2.95;;;23.10;35.40;23.70;102087.00;;;;4970321;28;93823;-66
2022/03/27 11:04:06;;;;;;;2.97;2.33;;;23.10;35.10;23.80;102083.00;;;;4959655;28;95529;-67
2022/03/27 11:06:42;;;;;;;3.40;2.42;;;23.10;35.00;24.00;102086.00;;;;4970508;28;93046;-66
2022/03/27 11:09:12;;;;;;;2.75;2.33;;;23.20;35.30;24.20;102075.00;;;;4971210;28;92982;-67
2022/03/27 11:11:38;;;;;;;4.03;2.78;;;23.50;36.10;24.50;102085.00;;;;4976860;27;93140;-67